sensor_id;sensor_type;location;lat;lon;timestamp;P1;durP1;ratioP1;P2;durP2;ratioP2
71753;SDS011;59593;51.716;7.016;2024-03-02T00:00:23;2.67;;;1.60;;
71753;SDS011;59593;51.716;7.016;2024-03-02T00:02:50;2.23;;;1.77;;
71753;SDS011;59593;51.716;7.016;2024-03-02T00:05:17;3.40;;;1.90;;
71753;SDS011;59593;51.716;7.016;2024-03-02T00:07:54;2.97;;;2.00;;
71753;SDS011;59593;51.716;7.016;2024-03-02T00:10:35;4.87;;;1.90;;
71753;SDS011;59593;51.716;7.016;2024-03-02T00:13:05;2.37;;;1.60;;
71753;SDS011;59593;51.716;7.016;2024-03-02T00:18:16;3.43;;;1.87;;
71753;SDS011;59593;51.716;7.016;2024-03-02T00:20:44;2.50;;;1.90;;
71753;SDS011;59593;51.716;7.016;2024-03-02T00:23:11;1.73;;;1.63;;
71753;SDS011;59593;51.716;7.016;2024-03-02T00:28:21;3.00;;;1.70;;
71753;SDS011;59593;51.716;7.016;2024-03-02T00:30:55;2.47;;;1.83;;
71753;SDS011;59593;51.716;7.016;2024-03-02T00:33:22;3.03;;;2.10;;
71753;SDS011;59593;51.716;7.016;2024-03-02T00:35:49;3.53;;;1.97;;
71753;SDS011;59593;51.716;7.016;2024-03-02T00:38:14;3.03;;;1.90;;
71753;SDS011;59593;51.716;7.016;2024-03-02T00:40:41;2.77;;;1.87;;
71753;SDS011;59593;51.716;7.016;2024-03-02T00:43:32;2.73;;;2.10;;
71753;SDS011;59593;51.716;7.016;2024-03-02T00:46:12;3.60;;;1.93;;
71753;SDS011;59593;51.716;7.016;2024-03-02T00:48:47;3.10;;;2.13;;
71753;SDS011;59593;51.716;7.016;2024-03-02T00:51:15;3.57;;;2.07;;
71753;SDS011;59593;51.716;7.016;2024-03-02T00:53:41;3.10;;;1.87;;
71753;SDS011;59593;51.716;7.016;2024-03-02T00:56:09;3.63;;;2.10;;
71753;SDS011;59593;51.716;7.016;2024-03-02T00:58:35;2.63;;;2.20;;
71753;SDS011;59593;51.716;7.016;2024-03-02T01:01:01;2.63;;;1.83;;
71753;SDS011;59593;51.716;7.016;2024-03-02T01:03:27;3.67;;;2.33;;
71753;SDS011;59593;51.716;7.016;2024-03-02T01:05:52;5.17;;;2.50;;
71753;SDS011;59593;51.716;7.016;2024-03-02T01:08:18;3.03;;;2.20;;
71753;SDS011;59593;51.716;7.016;2024-03-02T01:10:44;2.90;;;2.17;;
71753;SDS011;59593;51.716;7.016;2024-03-02T01:13:09;2.73;;;2.17;;
71753;SDS011;59593;51.716;7.016;2024-03-02T01:15:35;3.20;;;1.90;;
71753;SDS011;59593;51.716;7.016;2024-03-02T01:18:01;3.30;;;2.10;;
71753;SDS011;59593;51.716;7.016;2024-03-02T01:20:26;2.40;;;1.87;;
71753;SDS011;59593;51.716;7.016;2024-03-02T01:22:52;2.87;;;2.00;;
71753;SDS011;59593;51.716;7.016;2024-03-02T01:25:18;2.60;;;2.00;;
71753;SDS011;59593;51.716;7.016;2024-03-02T01:27:43;3.80;;;2.10;;
71753;SDS011;59593;51.716;7.016;2024-03-02T01:30:09;3.60;;;2.33;;
71753;SDS011;59593;51.716;7.016;2024-03-02T01:32:37;3.83;;;2.23;;
71753;SDS011;59593;51.716;7.016;2024-03-02T01:35:03;3.00;;;2.00;;
71753;SDS011;59593;51.716;7.016;2024-03-02T01:37:29;2.13;;;1.83;;
71753;SDS011;59593;51.716;7.016;2024-03-02T01:39:55;2.70;;;1.70;;
71753;SDS011;59593;51.716;7.016;2024-03-02T01:42:20;3.53;;;1.97;;
71753;SDS011;59593;51.716;7.016;2024-03-02T01:44:47;3.03;;;1.80;;
71753;SDS011;59593;51.716;7.016;2024-03-02T01:47:12;2.40;;;1.70;;
71753;SDS011;59593;51.716;7.016;2024-03-02T01:49:38;1.80;;;1.47;;
71753;SDS011;59593;51.716;7.016;2024-03-02T01:52:05;2.67;;;1.60;;
71753;SDS011;59593;51.716;7.016;2024-03-02T01:54:31;3.53;;;1.60;;
71753;SDS011;59593;51.716;7.016;2024-03-02T01:56:57;2.93;;;1.70;;
71753;SDS011;59593;51.716;7.016;2024-03-02T01:59:23;3.40;;;1.60;;
71753;SDS011;59593;51.716;7.016;2024-03-02T02:01:49;3.27;;;1.50;;
71753;SDS011;59593;51.716;7.016;2024-03-02T02:04:15;3.93;;;1.60;;
71753;SDS011;59593;51.716;7.016;2024-03-02T02:06:40;2.47;;;1.40;;
71753;SDS011;59593;51.716;7.016;2024-03-02T02:09:07;2.20;;;1.53;;
71753;SDS011;59593;51.716;7.016;2024-03-02T02:11:33;2.80;;;1.70;;
71753;SDS011;59593;51.716;7.016;2024-03-02T02:13:59;2.23;;;1.50;;
71753;SDS011;59593;51.716;7.016;2024-03-02T02:16:25;3.13;;;1.40;;
71753;SDS011;59593;51.716;7.016;2024-03-02T02:18:50;2.20;;;1.20;;
71753;SDS011;59593;51.716;7.016;2024-03-02T02:21:16;1.87;;;1.43;;
71753;SDS011;59593;51.716;7.016;2024-03-02T02:23:41;4.50;;;1.50;;
71753;SDS011;59593;51.716;7.016;2024-03-02T02:26:11;1.93;;;1.30;;
71753;SDS011;59593;51.716;7.016;2024-03-02T02:28:37;2.50;;;1.27;;
71753;SDS011;59593;51.716;7.016;2024-03-02T02:31:02;2.30;;;1.30;;
71753;SDS011;59593;51.716;7.016;2024-03-02T02:33:28;2.73;;;1.30;;
71753;SDS011;59593;51.716;7.016;2024-03-02T02:35:54;2.23;;;1.40;;
71753;SDS011;59593;51.716;7.016;2024-03-02T02:38:19;2.60;;;1.47;;
71753;SDS011;59593;51.716;7.016;2024-03-02T02:40:45;2.17;;;1.30;;
71753;SDS011;59593;51.716;7.016;2024-03-02T02:43:11;2.93;;;1.40;;
71753;SDS011;59593;51.716;7.016;2024-03-02T02:45:36;2.20;;;1.20;;
71753;SDS011;59593;51.716;7.016;2024-03-02T02:48:02;2.90;;;1.40;;
71753;SDS011;59593;51.716;7.016;2024-03-02T02:50:28;1.97;;;1.37;;
71753;SDS011;59593;51.716;7.016;2024-03-02T02:52:54;1.87;;;1.37;;
71753;SDS011;59593;51.716;7.016;2024-03-02T02:55:19;3.07;;;1.20;;
71753;SDS011;59593;51.716;7.016;2024-03-02T02:57:45;2.93;;;1.47;;
71753;SDS011;59593;51.716;7.016;2024-03-02T03:00:12;2.67;;;1.37;;
71753;SDS011;59593;51.716;7.016;2024-03-02T03:02:43;3.80;;;1.50;;
71753;SDS011;59593;51.716;7.016;2024-03-02T03:05:12;1.67;;;1.20;;
71753;SDS011;59593;51.716;7.016;2024-03-02T03:07:39;2.43;;;1.37;;
71753;SDS011;59593;51.716;7.016;2024-03-02T03:10:05;2.20;;;1.20;;
71753;SDS011;59593;51.716;7.016;2024-03-02T03:12:32;2.40;;;1.40;;
71753;SDS011;59593;51.716;7.016;2024-03-02T03:15:01;2.33;;;1.30;;
71753;SDS011;59593;51.716;7.016;2024-03-02T03:17:28;3.90;;;1.40;;
71753;SDS011;59593;51.716;7.016;2024-03-02T03:19:53;2.27;;;1.20;;
71753;SDS011;59593;51.716;7.016;2024-03-02T03:22:19;3.87;;;1.47;;
71753;SDS011;59593;51.716;7.016;2024-03-02T03:24:45;2.50;;;1.50;;
71753;SDS011;59593;51.716;7.016;2024-03-02T03:27:11;2.57;;;1.60;;
71753;SDS011;59593;51.716;7.016;2024-03-02T03:29:36;3.20;;;1.13;;
71753;SDS011;59593;51.716;7.016;2024-03-02T03:32:02;3.00;;;1.40;;
71753;SDS011;59593;51.716;7.016;2024-03-02T03:34:29;3.73;;;1.30;;
71753;SDS011;59593;51.716;7.016;2024-03-02T03:36:57;2.47;;;1.30;;
71753;SDS011;59593;51.716;7.016;2024-03-02T03:39:23;2.67;;;1.30;;
71753;SDS011;59593;51.716;7.016;2024-03-02T03:41:49;4.50;;;1.40;;
71753;SDS011;59593;51.716;7.016;2024-03-02T03:44:14;2.60;;;1.10;;
71753;SDS011;59593;51.716;7.016;2024-03-02T03:46:40;2.67;;;1.43;;
71753;SDS011;59593;51.716;7.016;2024-03-02T03:49:05;2.83;;;1.40;;
71753;SDS011;59593;51.716;7.016;2024-03-02T03:51:31;2.50;;;1.50;;
71753;SDS011;59593;51.716;7.016;2024-03-02T03:53:56;2.97;;;1.40;;
71753;SDS011;59593;51.716;7.016;2024-03-02T03:56:22;2.23;;;1.50;;
71753;SDS011;59593;51.716;7.016;2024-03-02T03:58:47;2.13;;;1.35;;
71753;SDS011;59593;51.716;7.016;2024-03-02T04:01:13;2.10;;;1.27;;
71753;SDS011;59593;51.716;7.016;2024-03-02T04:03:39;3.77;;;1.37;;
71753;SDS011;59593;51.716;7.016;2024-03-02T04:06:04;4.50;;;1.60;;
71753;SDS011;59593;51.716;7.016;2024-03-02T04:08:31;4.53;;;1.60;;
71753;SDS011;59593;51.716;7.016;2024-03-02T04:10:56;2.77;;;1.70;;
71753;SDS011;59593;51.716;7.016;2024-03-02T04:13:22;1.93;;;1.40;;
71753;SDS011;59593;51.716;7.016;2024-03-02T04:15:47;3.40;;;1.97;;
71753;SDS011;59593;51.716;7.016;2024-03-02T04:18:13;2.87;;;1.47;;
71753;SDS011;59593;51.716;7.016;2024-03-02T04:20:38;2.13;;;1.50;;
71753;SDS011;59593;51.716;7.016;2024-03-02T04:23:04;2.97;;;1.50;;
71753;SDS011;59593;51.716;7.016;2024-03-02T04:25:30;3.53;;;1.53;;
71753;SDS011;59593;51.716;7.016;2024-03-02T04:27:55;6.07;;;1.90;;
71753;SDS011;59593;51.716;7.016;2024-03-02T04:30:21;4.47;;;1.90;;
71753;SDS011;59593;51.716;7.016;2024-03-02T04:32:46;2.90;;;1.73;;
71753;SDS011;59593;51.716;7.016;2024-03-02T04:35:12;4.47;;;1.60;;
71753;SDS011;59593;51.716;7.016;2024-03-02T04:37:38;3.37;;;1.80;;
71753;SDS011;59593;51.716;7.016;2024-03-02T04:40:04;3.70;;;1.80;;
71753;SDS011;59593;51.716;7.016;2024-03-02T04:42:33;3.37;;;1.67;;
71753;SDS011;59593;51.716;7.016;2024-03-02T04:44:59;2.33;;;1.50;;
71753;SDS011;59593;51.716;7.016;2024-03-02T04:47:25;3.37;;;1.60;;
71753;SDS011;59593;51.716;7.016;2024-03-02T04:49:50;2.53;;;1.53;;
71753;SDS011;59593;51.716;7.016;2024-03-02T04:52:16;3.43;;;1.80;;
71753;SDS011;59593;51.716;7.016;2024-03-02T04:54:42;2.73;;;1.63;;
71753;SDS011;59593;51.716;7.016;2024-03-02T04:57:26;3.07;;;1.70;;
71753;SDS011;59593;51.716;7.016;2024-03-02T04:59:52;2.90;;;1.70;;
71753;SDS011;59593;51.716;7.016;2024-03-02T05:02:17;2.13;;;1.50;;
71753;SDS011;59593;51.716;7.016;2024-03-02T05:04:43;2.43;;;1.60;;
71753;SDS011;59593;51.716;7.016;2024-03-02T05:07:09;3.53;;;1.70;;
71753;SDS011;59593;51.716;7.016;2024-03-02T05:09:34;4.13;;;1.80;;
71753;SDS011;59593;51.716;7.016;2024-03-02T05:12:00;3.97;;;1.60;;
71753;SDS011;59593;51.716;7.016;2024-03-02T05:14:45;2.17;;;1.53;;
71753;SDS011;59593;51.716;7.016;2024-03-02T05:17:11;4.07;;;1.50;;
71753;SDS011;59593;51.716;7.016;2024-03-02T05:19:36;2.03;;;1.50;;
71753;SDS011;59593;51.716;7.016;2024-03-02T05:22:03;4.20;;;1.63;;
71753;SDS011;59593;51.716;7.016;2024-03-02T05:24:29;2.90;;;1.57;;
71753;SDS011;59593;51.716;7.016;2024-03-02T05:26:54;2.63;;;1.57;;
71753;SDS011;59593;51.716;7.016;2024-03-02T05:29:20;3.27;;;1.33;;
71753;SDS011;59593;51.716;7.016;2024-03-02T05:31:46;1.60;;;1.20;;
71753;SDS011;59593;51.716;7.016;2024-03-02T05:34:12;2.03;;;1.40;;
71753;SDS011;59593;51.716;7.016;2024-03-02T05:36:37;2.17;;;1.50;;
71753;SDS011;59593;51.716;7.016;2024-03-02T05:39:04;2.17;;;1.40;;
71753;SDS011;59593;51.716;7.016;2024-03-02T05:41:31;3.70;;;1.70;;
71753;SDS011;59593;51.716;7.016;2024-03-02T05:43:57;2.33;;;1.40;;
71753;SDS011;59593;51.716;7.016;2024-03-02T05:46:22;2.50;;;1.60;;
71753;SDS011;59593;51.716;7.016;2024-03-02T05:48:48;2.73;;;1.70;;
71753;SDS011;59593;51.716;7.016;2024-03-02T05:51:13;2.43;;;1.50;;
71753;SDS011;59593;51.716;7.016;2024-03-02T05:53:39;2.23;;;1.37;;
71753;SDS011;59593;51.716;7.016;2024-03-02T05:56:05;3.90;;;1.47;;
71753;SDS011;59593;51.716;7.016;2024-03-02T05:58:31;2.83;;;1.50;;
71753;SDS011;59593;51.716;7.016;2024-03-02T06:01:15;2.13;;;1.57;;
71753;SDS011;59593;51.716;7.016;2024-03-02T06:03:42;3.47;;;1.57;;
71753;SDS011;59593;51.716;7.016;2024-03-02T06:06:08;3.57;;;1.47;;
71753;SDS011;59593;51.716;7.016;2024-03-02T06:08:34;2.67;;;1.47;;
71753;SDS011;59593;51.716;7.016;2024-03-02T06:11:00;3.67;;;1.63;;
71753;SDS011;59593;51.716;7.016;2024-03-02T06:13:26;4.60;;;1.80;;
71753;SDS011;59593;51.716;7.016;2024-03-02T06:15:51;2.13;;;1.40;;
71753;SDS011;59593;51.716;7.016;2024-03-02T06:18:17;2.67;;;1.50;;
71753;SDS011;59593;51.716;7.016;2024-03-02T06:20:43;3.00;;;1.60;;
71753;SDS011;59593;51.716;7.016;2024-03-02T06:23:08;4.47;;;1.70;;
71753;SDS011;59593;51.716;7.016;2024-03-02T06:25:34;5.20;;;1.63;;
71753;SDS011;59593;51.716;7.016;2024-03-02T06:28:00;3.53;;;2.10;;
71753;SDS011;59593;51.716;7.016;2024-03-02T06:30:25;4.47;;;2.80;;
71753;SDS011;59593;51.716;7.016;2024-03-02T06:32:51;2.83;;;2.10;;
71753;SDS011;59593;51.716;7.016;2024-03-02T06:35:16;3.50;;;1.73;;
71753;SDS011;59593;51.716;7.016;2024-03-02T06:37:42;2.93;;;1.90;;
71753;SDS011;59593;51.716;7.016;2024-03-02T06:40:08;3.20;;;1.70;;
71753;SDS011;59593;51.716;7.016;2024-03-02T06:42:34;2.93;;;1.60;;
71753;SDS011;59593;51.716;7.016;2024-03-02T06:44:59;3.17;;;1.80;;
71753;SDS011;59593;51.716;7.016;2024-03-02T06:47:25;3.53;;;1.63;;
71753;SDS011;59593;51.716;7.016;2024-03-02T06:49:51;2.80;;;1.70;;
71753;SDS011;59593;51.716;7.016;2024-03-02T06:52:18;2.73;;;1.47;;
71753;SDS011;59593;51.716;7.016;2024-03-02T06:54:43;3.67;;;1.90;;
71753;SDS011;59593;51.716;7.016;2024-03-02T06:57:09;3.33;;;1.73;;
71753;SDS011;59593;51.716;7.016;2024-03-02T06:59:35;5.80;;;1.90;;
71753;SDS011;59593;51.716;7.016;2024-03-02T07:02:00;2.97;;;1.90;;
71753;SDS011;59593;51.716;7.016;2024-03-02T07:04:26;2.97;;;1.90;;
71753;SDS011;59593;51.716;7.016;2024-03-02T07:06:52;3.37;;;2.17;;
71753;SDS011;59593;51.716;7.016;2024-03-02T07:09:17;2.90;;;1.90;;
71753;SDS011;59593;51.716;7.016;2024-03-02T07:11:47;5.17;;;2.13;;
71753;SDS011;59593;51.716;7.016;2024-03-02T07:14:13;3.73;;;2.00;;
71753;SDS011;59593;51.716;7.016;2024-03-02T07:16:38;4.67;;;2.33;;
71753;SDS011;59593;51.716;7.016;2024-03-02T07:19:06;4.63;;;2.13;;
71753;SDS011;59593;51.716;7.016;2024-03-02T07:21:32;4.33;;;2.33;;
71753;SDS011;59593;51.716;7.016;2024-03-02T07:23:58;8.67;;;6.17;;
71753;SDS011;59593;51.716;7.016;2024-03-02T07:26:24;18.40;;;12.23;;
71753;SDS011;59593;51.716;7.016;2024-03-02T07:28:50;6.97;;;3.90;;
71753;SDS011;59593;51.716;7.016;2024-03-02T07:31:16;4.17;;;2.40;;
71753;SDS011;59593;51.716;7.016;2024-03-02T07:33:43;5.67;;;3.93;;
71753;SDS011;59593;51.716;7.016;2024-03-02T07:36:10;6.50;;;3.67;;
71753;SDS011;59593;51.716;7.016;2024-03-02T07:38:36;5.67;;;3.00;;
71753;SDS011;59593;51.716;7.016;2024-03-02T07:41:02;9.03;;;5.37;;
71753;SDS011;59593;51.716;7.016;2024-03-02T07:43:29;5.93;;;3.83;;
71753;SDS011;59593;51.716;7.016;2024-03-02T07:45:56;6.87;;;4.30;;
71753;SDS011;59593;51.716;7.016;2024-03-02T07:48:22;7.07;;;4.47;;
71753;SDS011;59593;51.716;7.016;2024-03-02T07:50:47;17.33;;;10.37;;
71753;SDS011;59593;51.716;7.016;2024-03-02T07:53:14;6.90;;;4.53;;
71753;SDS011;59593;51.716;7.016;2024-03-02T07:55:40;20.83;;;11.23;;
71753;SDS011;59593;51.716;7.016;2024-03-02T07:58:06;15.73;;;9.13;;
71753;SDS011;59593;51.716;7.016;2024-03-02T08:00:31;24.33;;;13.30;;
71753;SDS011;59593;51.716;7.016;2024-03-02T08:02:57;23.83;;;14.87;;
71753;SDS011;59593;51.716;7.016;2024-03-02T08:05:23;8.47;;;5.90;;
71753;SDS011;59593;51.716;7.016;2024-03-02T08:07:48;5.37;;;2.73;;
71753;SDS011;59593;51.716;7.016;2024-03-02T08:10:17;5.47;;;2.87;;
71753;SDS011;59593;51.716;7.016;2024-03-02T08:12:44;5.10;;;2.70;;
71753;SDS011;59593;51.716;7.016;2024-03-02T08:15:09;3.87;;;2.40;;
71753;SDS011;59593;51.716;7.016;2024-03-02T08:17:35;3.43;;;2.20;;
71753;SDS011;59593;51.716;7.016;2024-03-02T08:20:00;5.73;;;2.47;;
71753;SDS011;59593;51.716;7.016;2024-03-02T08:22:26;4.90;;;3.10;;
71753;SDS011;59593;51.716;7.016;2024-03-02T08:24:52;4.70;;;2.60;;
71753;SDS011;59593;51.716;7.016;2024-03-02T08:27:19;3.93;;;2.33;;
71753;SDS011;59593;51.716;7.016;2024-03-02T08:29:45;4.67;;;2.30;;
71753;SDS011;59593;51.716;7.016;2024-03-02T08:32:10;4.37;;;2.40;;
71753;SDS011;59593;51.716;7.016;2024-03-02T08:34:36;3.73;;;2.50;;
71753;SDS011;59593;51.716;7.016;2024-03-02T08:37:02;4.00;;;2.33;;
71753;SDS011;59593;51.716;7.016;2024-03-02T08:39:27;4.10;;;2.60;;
71753;SDS011;59593;51.716;7.016;2024-03-02T08:41:53;4.77;;;2.27;;
71753;SDS011;59593;51.716;7.016;2024-03-02T08:44:19;3.40;;;2.03;;
71753;SDS011;59593;51.716;7.016;2024-03-02T08:46:45;3.93;;;2.00;;
71753;SDS011;59593;51.716;7.016;2024-03-02T08:49:11;4.90;;;2.40;;
71753;SDS011;59593;51.716;7.016;2024-03-02T08:51:37;2.97;;;2.13;;
71753;SDS011;59593;51.716;7.016;2024-03-02T08:54:03;2.63;;;2.03;;
71753;SDS011;59593;51.716;7.016;2024-03-02T08:56:29;3.30;;;2.03;;
71753;SDS011;59593;51.716;7.016;2024-03-02T08:58:55;4.17;;;2.23;;
71753;SDS011;59593;51.716;7.016;2024-03-02T09:01:21;3.27;;;2.10;;
71753;SDS011;59593;51.716;7.016;2024-03-02T09:03:47;5.53;;;2.10;;
71753;SDS011;59593;51.716;7.016;2024-03-02T09:06:14;3.73;;;2.40;;
71753;SDS011;59593;51.716;7.016;2024-03-02T09:08:41;3.00;;;2.00;;
71753;SDS011;59593;51.716;7.016;2024-03-02T09:11:08;3.27;;;2.10;;
71753;SDS011;59593;51.716;7.016;2024-03-02T09:13:35;2.83;;;2.00;;
71753;SDS011;59593;51.716;7.016;2024-03-02T09:16:02;3.80;;;2.00;;
71753;SDS011;59593;51.716;7.016;2024-03-02T09:18:29;3.03;;;1.80;;
71753;SDS011;59593;51.716;7.016;2024-03-02T09:20:54;4.10;;;2.33;;
71753;SDS011;59593;51.716;7.016;2024-03-02T09:23:20;4.00;;;1.83;;
71753;SDS011;59593;51.716;7.016;2024-03-02T09:25:46;2.30;;;1.70;;
71753;SDS011;59593;51.716;7.016;2024-03-02T09:28:11;2.40;;;1.67;;
71753;SDS011;59593;51.716;7.016;2024-03-02T09:30:37;3.13;;;2.17;;
71753;SDS011;59593;51.716;7.016;2024-03-02T09:33:03;2.87;;;1.87;;
71753;SDS011;59593;51.716;7.016;2024-03-02T09:35:29;3.37;;;1.63;;
71753;SDS011;59593;51.716;7.016;2024-03-02T09:37:55;2.97;;;1.93;;
71753;SDS011;59593;51.716;7.016;2024-03-02T09:40:23;6.30;;;1.90;;
71753;SDS011;59593;51.716;7.016;2024-03-02T09:42:50;2.20;;;1.63;;
71753;SDS011;59593;51.716;7.016;2024-03-02T09:45:24;4.03;;;2.10;;
71753;SDS011;59593;51.716;7.016;2024-03-02T09:47:51;2.80;;;2.00;;
71753;SDS011;59593;51.716;7.016;2024-03-02T09:50:17;3.88;;;2.38;;
71753;SDS011;59593;51.716;7.016;2024-03-02T09:52:42;5.97;;;2.20;;
71753;SDS011;59593;51.716;7.016;2024-03-02T09:55:09;4.15;;;2.30;;
71753;SDS011;59593;51.716;7.016;2024-03-02T09:57:34;5.67;;;1.93;;
71753;SDS011;59593;51.716;7.016;2024-03-02T10:00:00;5.30;;;2.10;;
71753;SDS011;59593;51.716;7.016;2024-03-02T10:02:26;4.40;;;2.00;;
71753;SDS011;59593;51.716;7.016;2024-03-02T10:04:52;4.75;;;2.13;;
71753;SDS011;59593;51.716;7.016;2024-03-02T10:07:18;3.00;;;1.98;;
71753;SDS011;59593;51.716;7.016;2024-03-02T10:09:44;2.60;;;1.70;;
71753;SDS011;59593;51.716;7.016;2024-03-02T10:12:12;3.40;;;1.50;;
71753;SDS011;59593;51.716;7.016;2024-03-02T10:14:39;4.57;;;1.73;;
71753;SDS011;59593;51.716;7.016;2024-03-02T10:17:05;4.43;;;2.10;;
71753;SDS011;59593;51.716;7.016;2024-03-02T10:19:33;3.17;;;1.70;;
71753;SDS011;59593;51.716;7.016;2024-03-02T10:22:00;2.75;;;1.73;;
71753;SDS011;59593;51.716;7.016;2024-03-02T10:24:27;4.00;;;1.50;;
71753;SDS011;59593;51.716;7.016;2024-03-02T10:26:59;3.25;;;1.80;;
71753;SDS011;59593;51.716;7.016;2024-03-02T10:29:25;3.78;;;1.55;;
71753;SDS011;59593;51.716;7.016;2024-03-02T10:31:53;3.03;;;1.63;;
71753;SDS011;59593;51.716;7.016;2024-03-02T10:34:19;3.22;;;1.60;;
71753;SDS011;59593;51.716;7.016;2024-03-02T10:36:47;2.83;;;1.48;;
71753;SDS011;59593;51.716;7.016;2024-03-02T10:39:13;4.70;;;1.42;;
71753;SDS011;59593;51.716;7.016;2024-03-02T10:41:40;2.53;;;1.40;;
71753;SDS011;59593;51.716;7.016;2024-03-02T10:44:06;1.83;;;1.42;;
71753;SDS011;59593;51.716;7.016;2024-03-02T10:46:35;5.78;;;1.75;;
71753;SDS011;59593;51.716;7.016;2024-03-02T10:49:02;3.05;;;1.63;;
71753;SDS011;59593;51.716;7.016;2024-03-02T10:51:29;5.18;;;1.50;;
71753;SDS011;59593;51.716;7.016;2024-03-02T10:53:59;4.03;;;1.77;;
71753;SDS011;59593;51.716;7.016;2024-03-02T10:56:29;3.80;;;1.80;;
71753;SDS011;59593;51.716;7.016;2024-03-02T11:01:46;3.65;;;1.90;;
71753;SDS011;59593;51.716;7.016;2024-03-02T11:04:12;2.72;;;1.75;;
71753;SDS011;59593;51.716;7.016;2024-03-02T11:06:42;2.63;;;1.75;;
71753;SDS011;59593;51.716;7.016;2024-03-02T11:09:14;2.38;;;1.60;;
71753;SDS011;59593;51.716;7.016;2024-03-02T11:11:42;2.95;;;1.27;;
71753;SDS011;59593;51.716;7.016;2024-03-02T11:14:13;3.35;;;1.98;;
71753;SDS011;59593;51.716;7.016;2024-03-02T11:16:41;3.38;;;2.40;;
71753;SDS011;59593;51.716;7.016;2024-03-02T11:19:09;3.63;;;1.50;;
71753;SDS011;59593;51.716;7.016;2024-03-02T11:21:37;2.70;;;1.50;;
71753;SDS011;59593;51.716;7.016;2024-03-02T11:26:48;2.75;;;1.48;;
71753;SDS011;59593;51.716;7.016;2024-03-02T11:32:00;3.80;;;1.45;;
71753;SDS011;59593;51.716;7.016;2024-03-02T11:34:36;5.30;;;1.58;;
71753;SDS011;59593;51.716;7.016;2024-03-02T11:37:04;2.58;;;1.42;;
71753;SDS011;59593;51.716;7.016;2024-03-02T11:39:30;2.10;;;1.20;;
71753;SDS011;59593;51.716;7.016;2024-03-02T11:41:56;2.65;;;1.50;;
71753;SDS011;59593;51.716;7.016;2024-03-02T11:44:26;2.47;;;1.30;;
71753;SDS011;59593;51.716;7.016;2024-03-02T11:46:54;3.92;;;1.50;;
71753;SDS011;59593;51.716;7.016;2024-03-02T11:49:37;1.90;;;1.30;;
71753;SDS011;59593;51.716;7.016;2024-03-02T11:52:10;2.78;;;1.27;;
71753;SDS011;59593;51.716;7.016;2024-03-02T11:54:38;2.13;;;1.30;;
71753;SDS011;59593;51.716;7.016;2024-03-02T11:57:06;4.03;;;1.50;;
71753;SDS011;59593;51.716;7.016;2024-03-02T11:59:32;1.35;;;1.20;;
71753;SDS011;59593;51.716;7.016;2024-03-02T12:01:58;3.45;;;1.30;;
71753;SDS011;59593;51.716;7.016;2024-03-02T12:04:25;2.08;;;1.20;;
71753;SDS011;59593;51.716;7.016;2024-03-02T12:07:00;4.15;;;1.30;;
71753;SDS011;59593;51.716;7.016;2024-03-02T12:09:29;3.13;;;1.33;;
71753;SDS011;59593;51.716;7.016;2024-03-02T12:12:02;2.53;;;1.30;;
71753;SDS011;59593;51.716;7.016;2024-03-02T12:14:32;3.60;;;1.40;;
71753;SDS011;59593;51.716;7.016;2024-03-02T12:16:59;1.73;;;1.00;;
71753;SDS011;59593;51.716;7.016;2024-03-02T12:19:25;3.67;;;1.48;;
71753;SDS011;59593;51.716;7.016;2024-03-02T12:21:52;2.08;;;1.38;;
71753;SDS011;59593;51.716;7.016;2024-03-02T12:24:18;2.53;;;1.15;;
71753;SDS011;59593;51.716;7.016;2024-03-02T12:26:44;2.65;;;1.60;;
71753;SDS011;59593;51.716;7.016;2024-03-02T12:29:11;2.40;;;1.20;;
71753;SDS011;59593;51.716;7.016;2024-03-02T12:31:37;3.30;;;1.30;;
71753;SDS011;59593;51.716;7.016;2024-03-02T12:34:04;1.90;;;1.10;;
71753;SDS011;59593;51.716;7.016;2024-03-02T12:36:30;2.40;;;1.17;;
71753;SDS011;59593;51.716;7.016;2024-03-02T12:39:01;3.38;;;1.30;;
71753;SDS011;59593;51.716;7.016;2024-03-02T12:41:27;2.05;;;1.20;;
71753;SDS011;59593;51.716;7.016;2024-03-02T12:43:53;3.45;;;1.10;;
71753;SDS011;59593;51.716;7.016;2024-03-02T12:46:19;4.10;;;1.45;;
71753;SDS011;59593;51.716;7.016;2024-03-02T12:48:45;2.95;;;1.48;;
71753;SDS011;59593;51.716;7.016;2024-03-02T12:51:11;1.92;;;1.17;;
71753;SDS011;59593;51.716;7.016;2024-03-02T12:53:37;3.47;;;1.35;;
71753;SDS011;59593;51.716;7.016;2024-03-02T12:56:02;3.83;;;1.10;;
71753;SDS011;59593;51.716;7.016;2024-03-02T12:58:29;3.65;;;1.30;;
71753;SDS011;59593;51.716;7.016;2024-03-02T13:01:08;6.43;;;1.27;;
71753;SDS011;59593;51.716;7.016;2024-03-02T13:03:40;2.85;;;1.15;;
71753;SDS011;59593;51.716;7.016;2024-03-02T13:06:06;1.65;;;1.02;;
71753;SDS011;59593;51.716;7.016;2024-03-02T13:08:32;1.73;;;1.00;;
71753;SDS011;59593;51.716;7.016;2024-03-02T13:10:58;2.38;;;1.08;;
71753;SDS011;59593;51.716;7.016;2024-03-02T13:13:24;3.65;;;1.10;;
71753;SDS011;59593;51.716;7.016;2024-03-02T13:15:50;2.80;;;1.30;;
71753;SDS011;59593;51.716;7.016;2024-03-02T13:18:21;1.48;;;1.02;;
71753;SDS011;59593;51.716;7.016;2024-03-02T13:20:47;2.05;;;1.20;;
71753;SDS011;59593;51.716;7.016;2024-03-02T13:23:12;2.75;;;1.25;;
71753;SDS011;59593;51.716;7.016;2024-03-02T13:25:39;1.63;;;1.10;;
71753;SDS011;59593;51.716;7.016;2024-03-02T13:28:05;1.77;;;1.10;;
71753;SDS011;59593;51.716;7.016;2024-03-02T13:30:31;1.52;;;1.25;;
71753;SDS011;59593;51.716;7.016;2024-03-02T13:32:57;3.80;;;1.30;;
71753;SDS011;59593;51.716;7.016;2024-03-02T13:35:23;2.50;;;1.10;;
71753;SDS011;59593;51.716;7.016;2024-03-02T13:37:48;1.98;;;1.08;;
71753;SDS011;59593;51.716;7.016;2024-03-02T13:40:15;1.70;;;1.10;;
71753;SDS011;59593;51.716;7.016;2024-03-02T13:42:45;1.85;;;1.20;;
71753;SDS011;59593;51.716;7.016;2024-03-02T13:45:12;2.55;;;1.17;;
71753;SDS011;59593;51.716;7.016;2024-03-02T13:47:40;1.48;;;0.90;;
71753;SDS011;59593;51.716;7.016;2024-03-02T13:50:07;2.65;;;1.13;;
71753;SDS011;59593;51.716;7.016;2024-03-02T13:52:32;1.83;;;1.10;;
71753;SDS011;59593;51.716;7.016;2024-03-02T13:54:58;1.58;;;1.17;;
71753;SDS011;59593;51.716;7.016;2024-03-02T13:57:24;1.98;;;1.10;;
71753;SDS011;59593;51.716;7.016;2024-03-02T13:59:49;1.30;;;1.00;;
71753;SDS011;59593;51.716;7.016;2024-03-02T14:02:17;2.00;;;1.00;;
71753;SDS011;59593;51.716;7.016;2024-03-02T14:04:43;1.33;;;1.00;;
71753;SDS011;59593;51.716;7.016;2024-03-02T14:07:08;1.48;;;0.80;;
71753;SDS011;59593;51.716;7.016;2024-03-02T14:09:36;2.10;;;1.00;;
71753;SDS011;59593;51.716;7.016;2024-03-02T14:12:02;2.30;;;1.10;;
71753;SDS011;59593;51.716;7.016;2024-03-02T14:14:29;2.28;;;1.10;;
71753;SDS011;59593;51.716;7.016;2024-03-02T14:16:54;1.30;;;1.00;;
71753;SDS011;59593;51.716;7.016;2024-03-02T14:19:28;1.90;;;1.20;;
71753;SDS011;59593;51.716;7.016;2024-03-02T14:21:54;2.42;;;2.10;;
71753;SDS011;59593;51.716;7.016;2024-03-02T14:24:21;3.35;;;0.95;;
71753;SDS011;59593;51.716;7.016;2024-03-02T14:26:50;2.63;;;0.88;;
71753;SDS011;59593;51.716;7.016;2024-03-02T14:29:16;1.35;;;0.85;;
71753;SDS011;59593;51.716;7.016;2024-03-02T14:31:43;2.00;;;0.90;;
71753;SDS011;59593;51.716;7.016;2024-03-02T14:34:09;4.07;;;0.90;;
71753;SDS011;59593;51.716;7.016;2024-03-02T14:36:34;2.83;;;1.05;;
71753;SDS011;59593;51.716;7.016;2024-03-02T14:39:00;4.22;;;0.85;;
71753;SDS011;59593;51.716;7.016;2024-03-02T14:41:26;1.50;;;1.08;;
71753;SDS011;59593;51.716;7.016;2024-03-02T14:43:52;3.97;;;2.33;;
71753;SDS011;59593;51.716;7.016;2024-03-02T14:46:17;1.92;;;1.40;;
71753;SDS011;59593;51.716;7.016;2024-03-02T14:48:44;3.92;;;3.25;;
71753;SDS011;59593;51.716;7.016;2024-03-02T14:51:10;1.17;;;1.08;;
71753;SDS011;59593;51.716;7.016;2024-03-02T14:53:36;1.00;;;0.90;;
71753;SDS011;59593;51.716;7.016;2024-03-02T14:56:03;2.50;;;1.08;;
71753;SDS011;59593;51.716;7.016;2024-03-02T14:58:29;1.33;;;0.82;;